Aérodrome :
LOGIN :

S'inscrire | Disclaimer

   EN    FR    IT 

 










Légende :    VFR   VFR Marginal   IFR   IFR Intensif   IFR Très Intensif
Visi : 
Plafond : 
>= 8 km
>= 3000ft
5 à 8 km
1000 à 3000 ft
1500m à 5 km
500 à 1000 ft
800 à 1500m
200 à 500 ft
< 800m
< 200 ft
Symboles :   Orages  Brouillard  Fortes neiges  Fortes précipitations  Vent > 20 kt
SIGMETs :   Divers  Orages  Givrage  Turbulence  Onde Orograph.  Cendres Volcan.







- Altitude de l'aérodrome : 233 ft
- Code IATA : REU


LERS - Reus Tarragona

DERNIER METAR :
  • 131230Z 26014KT CAVOK 11/00 Q1023

METARs EXPIRÉS :
  • 131200Z 26014KT CAVOK 11/00 Q1023
  • 131130Z 26012KT CAVOK 11/00 Q1024
  • 131100Z 25012KT CAVOK 11/01 Q1024
  • 131030Z 24013KT CAVOK 11/01 Q1024
  • 131000Z 26013KT CAVOK 11/01 Q1025

TAF TAF LERS
Valide du 13 à 09h jusqu'au 14 à 09h UTC


130800Z 1309/1409 25009KT 9999 FEW040 TX14/1309Z TN06/1406Z
PROB30
TEMPO 1310/1315 26010G20KT
PROB30
TEMPO 1321/1406 31015G25KT
Pas de NOTAMs connus pour ce terrain.



MET'MAP, la Météo Aéronautique d'un coup d'oeil ! - Copyright ORBIFLY Décembre 2007 - Disclaimer

ORBIFLY MET'MAP TEAM :

Programmation & Développement : Alexandra Zaïnal
Conception & Développement : Baudouin d'Aumeries
Co-Programmation & Développement : Marc-Olivier Méhu
Soutien technique & logistique : Manuel Goepfert

Contact : metmap@orbifly.com




SOURCES & CREDITS :

   NOAA